Time;durP1;ratioP1;P1;durP2;ratioP2;P2;SDS_P1;SDS_P2;PMS_P1;PMS_P2;Temp;Humidity;BMP_temperature;BMP_pressure;BME280_temperature;BME280_humidity;BME280_pressure;Samples;Min_cycle;Max_cycle;Signal;HPM_P1;HPM_P2
2023/06/11 00:01:17;;;;;;;;;;;;;;;18.77;100.00;95705.66;5079899;28;19985;-70
2023/06/11 00:03:46;;;;;;;;;;;;;;;18.75;100.00;95710.19;5067243;28;19929;-70
2023/06/11 00:06:17;;;;;;;;;;;;;;;18.76;100.00;95701.38;5081081;28;19924;-70
2023/06/11 00:08:44;;;;;;;;;;;;;;;18.52;100.00;95701.91;5072603;28;20418;-72
2023/06/11 00:11:11;;;;;;;;;;;;;;;18.43;100.00;95705.41;5082424;28;19956;-71
2023/06/11 00:13:37;;;;;;;;;;;;;;;18.38;100.00;95702.38;5072487;28;19928;-70
2023/06/11 00:16:04;;;;;;;;;;;;;;;18.38;100.00;95699.75;5080173;28;19925;-71
2023/06/11 00:18:30;;;;;;;;;;;;;;;18.43;100.00;95707.19;5079651;28;19928;-72
2023/06/11 00:20:58;;;;;;;;;;;;;;;18.41;100.00;95703.91;5080033;28;19931;-73
2023/06/11 00:23:24;;;;;;;;;;;;;;;18.40;100.00;95699.63;5070078;28;19923;-70
2023/06/11 00:25:52;;;;;;;;;;;;;;;18.38;100.00;95700.59;5082476;28;19928;-71
2023/06/11 00:28:20;;;;;;;;;;;;;;;18.41;100.00;95704.72;5080783;28;19946;-73
2023/06/11 00:30:46;;;;;;;;;;;;;;;18.43;100.00;95699.31;5066676;28;19925;-73
2023/06/11 00:33:12;;;;;;;;;;;;;;;18.33;100.00;95709.88;5078417;28;19947;-72
2023/06/11 00:35:39;;;;;;;;;;;;;;;18.27;100.00;95707.81;5070337;28;19929;-73
2023/06/11 00:38:06;;;;;;;;;;;;;;;18.19;100.00;95707.72;5069333;28;20735;-73
2023/06/11 00:40:32;;;;;;;;;;;;;;;17.79;100.00;95698.34;5078226;28;19924;-73
2023/06/11 00:42:58;;;;;;;;;;;;;;;17.62;100.00;95698.09;5083207;28;19931;-71
2023/06/11 00:45:27;;;;;;;;;;;;;;;17.79;100.00;95706.19;5080115;28;19978;-72
2023/06/11 00:47:53;;;;;;;;;;;;;;;17.82;100.00;95708.53;5077269;28;19979;-73
2023/06/11 00:50:19;;;;;;;;;;;;;;;17.97;100.00;95701.03;5068165;28;19924;-73
2023/06/11 00:52:46;;;;;;;;;;;;;;;17.96;100.00;95704.66;5078064;28;20400;-73
2023/06/11 00:55:13;;;;;;;;;;;;;;;17.95;100.00;95710.81;5081810;28;19935;-73
2023/06/11 00:57:41;;;;;;;;;;;;;;;18.03;100.00;95711.78;5063552;28;19947;-73
2023/06/11 01:00:11;;;;;;;;;;;;;;;17.99;100.00;95710.44;5075015;28;19924;-71
2023/06/11 01:02:43;;;;;;;;;;;;;;;17.86;100.00;95705.47;5067105;28;19925;-73
2023/06/11 01:05:11;;;;;;;;;;;;;;;17.77;100.00;95700.28;5081258;28;19993;-73
2023/06/11 01:07:41;;;;;;;;;;;;;;;17.64;100.00;95705.78;5069801;28;19925;-72
2023/06/11 01:10:08;;;;;;;;;;;;;;;17.65;100.00;95708.28;5069731;28;19928;-75
2023/06/11 01:12:34;;;;;;;;;;;;;;;17.59;100.00;95708.84;5075045;28;19935;-75
2023/06/11 01:15:00;;;;;;;;;;;;;;;17.47;100.00;95707.34;5080197;28;20394;-75
2023/06/11 01:17:29;;;;;;;;;;;;;;;17.49;100.00;95708.03;5066421;28;19924;-73
2023/06/11 01:20:03;;;;;;;;;;;;;;;17.54;100.00;95707.59;5062924;28;19936;-73
2023/06/11 01:22:31;;;;;;;;;;;;;;;17.50;100.00;95706.22;5073749;28;19924;-73
2023/06/11 01:25:04;;;;;;;;;;;;;;;17.50;100.00;95690.50;5062516;28;19931;-73
2023/06/11 01:27:35;;;;;;;;;;;;;;;17.46;100.00;95697.81;5080789;28;19932;-73
2023/06/11 01:30:05;;;;;;;;;;;;;;;17.51;100.00;95703.47;5065133;28;19929;-73
2023/06/11 01:32:32;;;;;;;;;;;;;;;17.46;100.00;95707.47;5080904;28;19959;-75
2023/06/11 01:35:00;;;;;;;;;;;;;;;17.42;100.00;95697.28;5072892;28;20287;-73
2023/06/11 01:37:29;;;;;;;;;;;;;;;17.47;100.00;95704.72;5084465;28;20401;-73
2023/06/11 01:39:55;;;;;;;;;;;;;;;17.25;100.00;95702.41;5079966;28;19928;-72
2023/06/11 01:42:21;;;;;;;;;;;;;;;17.27;100.00;95703.09;5071551;28;19978;-73
2023/06/11 01:44:48;;;;;;;;;;;;;;;17.05;100.00;95705.00;5065203;28;19951;-73
2023/06/11 01:47:15;;;;;;;;;;;;;;;17.06;100.00;95701.47;5072483;28;19940;-73
2023/06/11 01:49:42;;;;;;;;;;;;;;;17.12;100.00;95698.25;5071304;28;20319;-73
2023/06/11 01:52:08;;;;;;;;;;;;;;;16.74;100.00;95698.25;5075559;28;19931;-73
2023/06/11 01:54:35;;;;;;;;;;;;;;;16.77;100.00;95705.84;5084739;28;19928;-73
2023/06/11 01:57:01;;;;;;;;;;;;;;;16.76;100.00;95706.78;5081232;28;19985;-73
2023/06/11 01:59:27;;;;;;;;;;;;;;;16.63;100.00;95709.63;5080691;28;19977;-75
2023/06/11 02:01:53;;;;;;;;;;;;;;;16.57;100.00;95703.13;5070286;28;19928;-75
2023/06/11 02:04:21;;;;;;;;;;;;;;;16.59;100.00;95709.06;5067010;28;19924;-75
2023/06/11 02:06:48;;;;;;;;;;;;;;;16.64;100.00;95706.03;5081336;28;19924;-75
2023/06/11 02:09:15;;;;;;;;;;;;;;;16.48;100.00;95708.38;5072129;28;19935;-75
2023/06/11 02:11:41;;;;;;;;;;;;;;;16.45;100.00;95712.88;5077474;28;19928;-73
2023/06/11 02:14:07;;;;;;;;;;;;;;;16.41;100.00;95710.69;5076478;28;20303;-74
2023/06/11 02:16:33;;;;;;;;;;;;;;;16.40;100.00;95709.84;5085357;28;19974;-75
2023/06/11 02:19:00;;;;;;;;;;;;;;;16.31;100.00;95701.97;5067964;28;19925;-75
2023/06/11 02:21:27;;;;;;;;;;;;;;;16.30;100.00;95713.41;5062385;28;19924;-75
2023/06/11 02:23:54;;;;;;;;;;;;;;;16.34;100.00;95706.94;5079543;28;19931;-74
2023/06/11 02:26:21;;;;;;;;;;;;;;;16.25;100.00;95713.81;5077143;28;19924;-74
2023/06/11 02:28:47;;;;;;;;;;;;;;;16.21;100.00;95710.63;5067017;28;20041;-75
2023/06/11 02:31:13;;;;;;;;;;;;;;;16.37;100.00;95704.88;5077502;28;19925;-73
2023/06/11 02:33:40;;;;;;;;;;;;;;;16.41;100.00;95708.06;5073499;28;20258;-74
2023/06/11 02:36:06;;;;;;;;;;;;;;;16.45;100.00;95712.06;5080261;28;19924;-75
2023/06/11 02:38:34;;;;;;;;;;;;;;;16.51;100.00;95714.16;5074752;28;19932;-75
2023/06/11 02:41:00;;;;;;;;;;;;;;;16.27;100.00;95724.94;5083432;28;19963;-73
2023/06/11 02:43:26;;;;;;;;;;;;;;;16.00;100.00;95725.53;5078407;28;19931;-75
2023/06/11 02:45:52;;;;;;;;;;;;;;;15.92;100.00;95720.13;5077538;28;19929;-74
2023/06/11 02:48:19;;;;;;;;;;;;;;;15.87;100.00;95717.06;5084859;28;19925;-75
2023/06/11 02:50:45;;;;;;;;;;;;;;;15.83;100.00;95718.28;5068696;28;19948;-74
2023/06/11 02:53:11;;;;;;;;;;;;;;;15.84;100.00;95723.38;5084274;28;20382;-75
2023/06/11 02:55:39;;;;;;;;;;;;;;;15.82;100.00;95719.25;5073893;28;19924;-75
2023/06/11 02:58:05;;;;;;;;;;;;;;;15.90;100.00;95724.63;5080182;28;20376;-75
2023/06/11 03:00:31;;;;;;;;;;;;;;;15.86;100.00;95720.63;5076869;28;19928;-74
2023/06/11 03:02:58;;;;;;;;;;;;;;;15.89;100.00;95726.44;5057525;28;19924;-75
2023/06/11 03:05:24;;;;;;;;;;;;;;;15.69;100.00;95720.28;5077418;28;19924;-75
2023/06/11 03:07:50;;;;;;;;;;;;;;;15.71;100.00;95727.97;5066146;28;19935;-74
2023/06/11 03:10:17;;;;;;;;;;;;;;;15.83;100.00;95733.94;5076325;28;19932;-74
2023/06/11 03:12:44;;;;;;;;;;;;;;;15.87;100.00;95730.13;5073049;28;19929;-74
2023/06/11 03:15:11;;;;;;;;;;;;;;;15.83;100.00;95734.78;5070102;28;19933;-75
2023/06/11 03:17:37;;;;;;;;;;;;;;;15.54;100.00;95733.75;5077389;28;19931;-74
2023/06/11 03:20:03;;;;;;;;;;;;;;;15.39;100.00;95733.25;5063627;28;19925;-74
2023/06/11 03:22:30;;;;;;;;;;;;;;;15.51;100.00;95734.00;5077788;28;19932;-74
2023/06/11 03:24:56;;;;;;;;;;;;;;;15.26;100.00;95728.19;5062347;28;20398;-75
2023/06/11 03:27:22;;;;;;;;;;;;;;;15.17;100.00;95735.00;5065559;28;19924;-73
2023/06/11 03:29:50;;;;;;;;;;;;;;;15.19;100.00;95737.47;5064424;28;19924;-74
2023/06/11 03:32:16;;;;;;;;;;;;;;;15.08;100.00;95738.34;5066215;28;19928;-75
2023/06/11 03:34:43;;;;;;;;;;;;;;;15.20;100.00;95746.94;5061461;28;20454;-75
2023/06/11 03:37:10;;;;;;;;;;;;;;;15.16;100.00;95738.53;5069133;28;20347;-74
2023/06/11 03:39:36;;;;;;;;;;;;;;;15.18;100.00;95731.44;5071010;28;19936;-75
2023/06/11 03:42:02;;;;;;;;;;;;;;;15.22;100.00;95734.63;5077527;28;19932;-75
2023/06/11 03:44:29;;;;;;;;;;;;;;;15.29;100.00;95734.97;5074711;28;19978;-75
2023/06/11 03:46:56;;;;;;;;;;;;;;;15.38;100.00;95740.22;5076639;28;20361;-75
2023/06/11 03:49:23;;;;;;;;;;;;;;;15.23;100.00;95738.88;5070091;28;19924;-75
2023/06/11 03:51:49;;;;;;;;;;;;;;;15.32;100.00;95743.38;5077785;28;20378;-75
2023/06/11 03:54:15;;;;;;;;;;;;;;;15.41;100.00;95745.19;5084622;28;19932;-75
2023/06/11 03:56:41;;;;;;;;;;;;;;;15.52;100.00;95749.53;5083136;28;19977;-75
2023/06/11 03:59:08;;;;;;;;;;;;;;;15.63;100.00;95746.84;5072404;28;19955;-75
2023/06/11 04:01:34;;;;;;;;;;;;;;;15.75;100.00;95762.50;5070171;28;20457;-75
2023/06/11 04:04:02;;;;;;;;;;;;;;;15.74;100.00;95753.84;5061381;28;19929;-74
2023/06/11 04:06:29;;;;;;;;;;;;;;;15.79;100.00;95758.66;5080140;28;19928;-75
2023/06/11 04:08:55;;;;;;;;;;;;;;;15.92;100.00;95761.91;5065513;28;20415;-74
2023/06/11 04:11:22;;;;;;;;;;;;;;;15.85;100.00;95755.56;5077507;28;19931;-75
2023/06/11 04:13:49;;;;;;;;;;;;;;;15.67;100.00;95763.97;5077091;28;20387;-74
2023/06/11 04:16:16;;;;;;;;;;;;;;;15.81;100.00;95757.59;5088780;28;20302;-73
2023/06/11 04:18:42;;;;;;;;;;;;;;;15.71;100.00;95761.91;5074849;28;20323;-75
2023/06/11 04:21:10;;;;;;;;;;;;;;;15.77;100.00;95756.19;5076792;28;19924;-75
2023/06/11 04:23:37;;;;;;;;;;;;;;;15.85;100.00;95761.59;5081911;28;19971;-74
2023/06/11 04:26:03;;;;;;;;;;;;;;;15.96;100.00;95764.13;5079658;28;20368;-75
2023/06/11 04:28:30;;;;;;;;;;;;;;;16.05;100.00;95772.16;5082059;28;19924;-75
2023/06/11 04:30:57;;;;;;;;;;;;;;;16.02;100.00;95773.25;5081150;28;19932;-75
2023/06/11 04:33:32;;;;;;;;;;;;;;;15.98;100.00;95779.66;5081559;28;19931;-75
2023/06/11 04:36:00;;;;;;;;;;;;;;;16.08;100.00;95785.78;5075527;28;19928;-75
2023/06/11 04:38:28;;;;;;;;;;;;;;;16.20;100.00;95778.69;5073033;28;19924;-75
2023/06/11 04:40:54;;;;;;;;;;;;;;;16.26;100.00;95778.16;5082003;28;19924;-75
2023/06/11 04:43:22;;;;;;;;;;;;;;;16.26;100.00;95774.72;5075453;28;19928;-73
2023/06/11 04:45:49;;;;;;;;;;;;;;;16.44;100.00;95779.19;5071157;28;19956;-75
2023/06/11 04:48:21;;;;;;;;;;;;;;;16.62;100.00;95781.19;5079736;28;20398;-75
2023/06/11 04:50:48;;;;;;;;;;;;;;;16.72;100.00;95774.19;5078178;28;19931;-75
2023/06/11 04:53:22;;;;;;;;;;;;;;;16.82;100.00;95775.06;5084953;28;19924;-75
2023/06/11 04:55:51;;;;;;;;;;;;;;;16.71;100.00;95772.53;5077104;28;20028;-75
2023/06/11 04:58:20;;;;;;;;;;;;;;;16.73;100.00;95768.00;5083607;28;19932;-74
2023/06/11 05:00:47;;;;;;;;;;;;;;;16.75;100.00;95773.94;5075139;28;19925;-75
2023/06/11 05:03:13;;;;;;;;;;;;;;;16.87;100.00;95772.91;5076202;28;19964;-73
2023/06/11 05:05:40;;;;;;;;;;;;;;;16.73;100.00;95769.81;5079763;28;19993;-73
2023/06/11 05:08:06;;;;;;;;;;;;;;;16.93;100.00;95768.91;5070642;28;20354;-75
2023/06/11 05:10:32;;;;;;;;;;;;;;;17.07;100.00;95765.91;5070677;28;19954;-74
2023/06/11 05:13:00;;;;;;;;;;;;;;;17.15;100.00;95771.28;5060466;28;19992;-74
2023/06/11 05:15:26;;;;;;;;;;;;;;;17.18;100.00;95778.84;5075857;28;19928;-74
2023/06/11 05:17:53;;;;;;;;;;;;;;;17.34;100.00;95762.59;5081609;28;19924;-74
2023/06/11 05:20:19;;;;;;;;;;;;;;;17.34;100.00;95782.72;5071941;28;19928;-75
2023/06/11 05:22:46;;;;;;;;;;;;;;;17.38;100.00;95784.09;5076697;28;19936;-74
2023/06/11 05:25:19;;;;;;;;;;;;;;;17.62;100.00;95781.06;5079630;28;19924;-74
2023/06/11 05:27:45;;;;;;;;;;;;;;;17.65;100.00;95791.28;5074083;28;19971;-74
2023/06/11 05:30:14;;;;;;;;;;;;;;;17.68;100.00;95790.97;5078550;28;20326;-75
2023/06/11 05:32:40;;;;;;;;;;;;;;;17.77;100.00;95789.34;5075239;28;19928;-74
2023/06/11 05:35:07;;;;;;;;;;;;;;;17.88;100.00;95791.81;5061410;28;20371;-74
2023/06/11 05:37:33;;;;;;;;;;;;;;;18.17;100.00;95794.38;5062319;28;19924;-74
2023/06/11 05:39:59;;;;;;;;;;;;;;;18.51;100.00;95794.66;5076466;28;19936;-75
2023/06/11 05:42:25;;;;;;;;;;;;;;;18.63;100.00;95793.50;5070427;28;19935;-75
2023/06/11 05:44:52;;;;;;;;;;;;;;;18.95;100.00;95791.41;5072784;28;19924;-75
2023/06/11 05:47:20;;;;;;;;;;;;;;;18.81;100.00;95793.59;5077132;28;20340;-75
2023/06/11 05:49:46;;;;;;;;;;;;;;;18.96;100.00;95786.03;5067174;28;19929;-74
2023/06/11 05:52:12;;;;;;;;;;;;;;;19.22;100.00;95794.03;5065732;28;19925;-75
2023/06/11 05:54:38;;;;;;;;;;;;;;;19.51;100.00;95796.44;5084576;28;19931;-73
2023/06/11 05:57:06;;;;;;;;;;;;;;;19.65;100.00;95794.28;5070710;28;20436;-73
2023/06/11 05:59:32;;;;;;;;;;;;;;;20.04;100.00;95806.09;5071295;28;19932;-75
2023/06/11 06:01:59;;;;;;;;;;;;;;;19.88;100.00;95803.34;5069000;28;19924;-74
2023/06/11 06:04:26;;;;;;;;;;;;;;;19.94;100.00;95810.59;5067371;28;20298;-73
2023/06/11 06:06:53;;;;;;;;;;;;;;;20.16;100.00;95809.28;5071135;28;19991;-75
2023/06/11 06:09:19;;;;;;;;;;;;;;;20.04;100.00;95800.81;5061531;28;19931;-76
2023/06/11 06:11:46;;;;;;;;;;;;;;;20.08;100.00;95809.22;5069752;28;19981;-76
2023/06/11 06:14:12;;;;;;;;;;;;;;;20.10;100.00;95802.03;5063739;28;20367;-76
2023/06/11 06:16:38;;;;;;;;;;;;;;;20.28;100.00;95797.53;5063440;28;20027;-75
2023/06/11 06:19:05;;;;;;;;;;;;;;;20.37;100.00;95808.09;5065987;28;19929;-76
2023/06/11 06:21:33;;;;;;;;;;;;;;;20.47;100.00;95812.28;5075141;28;19928;-76
2023/06/11 06:23:59;;;;;;;;;;;;;;;20.28;100.00;95810.69;5070822;28;19929;-76
2023/06/11 06:26:25;;;;;;;;;;;;;;;20.48;100.00;95816.56;5078735;28;19928;-75
2023/06/11 06:28:53;;;;;;;;;;;;;;;20.40;100.00;95810.44;5067751;28;19978;-76
2023/06/11 06:31:20;;;;;;;;;;;;;;;20.48;100.00;95813.91;5073851;28;20303;-76
2023/06/11 06:33:46;;;;;;;;;;;;;;;20.34;100.00;95814.50;5079863;28;19961;-76
2023/06/11 06:36:13;;;;;;;;;;;;;;;20.32;100.00;95816.47;5073967;28;20298;-76
2023/06/11 06:38:40;;;;;;;;;;;;;;;20.45;100.00;95814.22;5071660;28;19931;-72
2023/06/11 06:41:06;;;;;;;;;;;;;;;20.51;100.00;95821.53;5073270;28;19928;-76
2023/06/11 06:43:33;;;;;;;;;;;;;;;20.61;100.00;95817.94;5071656;28;19924;-76
2023/06/11 06:46:00;;;;;;;;;;;;;;;20.75;100.00;95815.56;5072334;28;19932;-75
2023/06/11 06:48:26;;;;;;;;;;;;;;;20.79;100.00;95821.31;5074660;28;19928;-73
2023/06/11 06:50:52;;;;;;;;;;;;;;;20.45;100.00;95816.84;5071673;28;19925;-73
2023/06/11 06:53:19;;;;;;;;;;;;;;;20.40;100.00;95816.50;5081363;28;19924;-75
2023/06/11 06:55:46;;;;;;;;;;;;;;;20.81;100.00;95824.63;5072801;28;19936;-75
2023/06/11 06:58:13;;;;;;;;;;;;;;;21.07;100.00;95818.47;5083531;28;19924;-75
2023/06/11 07:00:40;;;;;;;;;;;;;;;20.87;100.00;95817.91;5072957;28;20012;-75
2023/06/11 07:03:07;;;;;;;;;;;;;;;20.70;100.00;95817.03;5073003;28;19928;-72
2023/06/11 07:05:33;;;;;;;;;;;;;;;21.11;99.52;95820.63;5080681;28;19923;-72
2023/06/11 07:07:59;;;;;;;;;;;;;;;21.30;99.33;95821.34;5065200;28;20445;-74
2023/06/11 07:10:25;;;;;;;;;;;;;;;21.43;98.69;95826.97;5076757;28;19931;-73
2023/06/11 07:12:53;;;;;;;;;;;;;;;21.24;97.43;95828.88;5060159;28;19990;-73
2023/06/11 07:15:19;;;;;;;;;;;;;;;21.55;100.00;95835.44;5077505;28;19947;-74
2023/06/11 07:17:45;;;;;;;;;;;;;;;21.47;97.71;95834.41;5068369;28;19936;-73
2023/06/11 07:20:12;;;;;;;;;;;;;;;21.55;99.53;95824.88;5075367;28;19970;-73
2023/06/11 07:22:39;;;;;;;;;;;;;;;21.50;99.33;95818.25;5067521;28;19985;-73
2023/06/11 07:25:06;;;;;;;;;;;;;;;21.73;91.92;95815.03;5075490;28;20284;-71
2023/06/11 07:27:33;;;;;;;;;;;;;;;22.03;99.20;95821.44;5086442;28;19930;-72
2023/06/11 07:30:00;;;;;;;;;;;;;;;22.26;91.62;95816.34;5073513;28;19931;-74
2023/06/11 07:32:26;;;;;;;;;;;;;;;22.35;92.48;95830.31;5066448;28;19924;-74
2023/06/11 07:34:53;;;;;;;;;;;;;;;22.21;90.15;95834.44;5064123;28;19932;-73
2023/06/11 07:37:19;;;;;;;;;;;;;;;22.35;93.23;95830.31;5078336;28;20394;-74
2023/06/11 07:39:45;;;;;;;;;;;;;;;22.23;94.38;95832.50;5068566;28;19928;-73
2023/06/11 07:42:12;;;;;;;;;;;;;;;22.47;88.12;95828.97;5068428;28;19924;-74
2023/06/11 07:44:38;;;;;;;;;;;;;;;22.68;86.77;95839.81;5062083;28;20371;-72
2023/06/11 07:47:06;;;;;;;;;;;;;;;22.86;86.65;95844.88;5064451;28;19958;-73
2023/06/11 07:49:32;;;;;;;;;;;;;;;22.49;92.67;95834.09;5062317;28;20283;-73
2023/06/11 07:51:58;;;;;;;;;;;;;;;22.46;87.18;95832.59;5067928;28;19940;-73
2023/06/11 07:54:24;;;;;;;;;;;;;;;22.57;92.18;95834.06;5064285;28;19924;-73
2023/06/11 07:56:51;;;;;;;;;;;;;;;22.11;88.43;95834.63;5056847;28;19951;-73
2023/06/11 07:59:17;;;;;;;;;;;;;;;22.23;87.59;95833.31;5057291;28;19925;-73
2023/06/11 08:01:44;;;;;;;;;;;;;;;22.46;92.90;95825.50;5058498;28;19932;-74
2023/06/11 08:04:11;;;;;;;;;;;;;;;22.98;93.78;95826.88;5058028;28;19982;-72
2023/06/11 08:06:37;;;;;;;;;;;;;;;22.68;88.78;95825.78;5064078;28;19932;-73
2023/06/11 08:09:04;;;;;;;;;;;;;;;22.55;86.06;95821.06;5059728;28;19931;-74
2023/06/11 08:11:30;;;;;;;;;;;;;;;22.85;86.46;95835.31;5058203;28;19933;-73
2023/06/11 08:13:56;;;;;;;;;;;;;;;23.27;81.72;95820.94;5056078;28;20388;-73
2023/06/11 08:16:23;;;;;;;;;;;;;;;23.37;80.63;95833.94;5072028;28;19927;-72
2023/06/11 08:18:49;;;;;;;;;;;;;;;22.58;84.30;95833.06;5055496;28;19925;-73
2023/06/11 08:21:17;;;;;;;;;;;;;;;22.36;87.35;95832.81;5057711;28;19936;-73
2023/06/11 08:23:43;;;;;;;;;;;;;;;22.83;86.11;95828.53;5058731;28;19933;-73
2023/06/11 08:26:09;;;;;;;;;;;;;;;22.79;85.13;95822.78;5065373;28;19933;-73
2023/06/11 08:28:37;;;;;;;;;;;;;;;22.82;84.00;95829.56;5061992;28;19929;-73
2023/06/11 08:31:03;;;;;;;;;;;;;;;23.26;82.50;95831.69;5071283;28;19925;-72
2023/06/11 08:33:30;;;;;;;;;;;;;;;23.11;78.01;95835.06;5078501;28;19928;-71
2023/06/11 08:35:56;;;;;;;;;;;;;;;23.29;79.45;95826.06;5066425;28;19932;-73
2023/06/11 08:38:24;;;;;;;;;;;;;;;23.10;82.58;95833.44;5059608;28;19924;-73
2023/06/11 08:40:51;;;;;;;;;;;;;;;23.02;80.03;95824.69;5061382;28;19925;-74
2023/06/11 08:43:17;;;;;;;;;;;;;;;23.18;81.23;95824.66;5078316;28;19970;-73
2023/06/11 08:45:44;;;;;;;;;;;;;;;23.27;83.07;95820.13;5075081;28;19934;-73
2023/06/11 08:48:11;;;;;;;;;;;;;;;23.70;82.21;95817.91;5069858;28;19928;-73
2023/06/11 08:50:37;;;;;;;;;;;;;;;23.83;81.25;95816.31;5067237;28;19964;-74
2023/06/11 08:53:04;;;;;;;;;;;;;;;24.05;80.60;95819.94;5073931;28;19932;-73
2023/06/11 08:55:32;;;;;;;;;;;;;;;23.92;83.41;95825.03;5078243;28;19950;-74
2023/06/11 08:57:58;;;;;;;;;;;;;;;23.73;75.99;95812.25;5075585;28;20336;-73
2023/06/11 09:00:25;;;;;;;;;;;;;;;24.12;78.58;95817.41;5073207;28;19924;-73
2023/06/11 09:02:52;;;;;;;;;;;;;;;24.31;78.93;95818.72;5070940;28;19928;-73
2023/06/11 09:05:18;;;;;;;;;;;;;;;24.00;69.56;95818.84;5068942;28;19932;-73
2023/06/11 09:07:48;;;;;;;;;;;;;;;23.73;74.12;95815.75;5068329;28;19999;-73
2023/06/11 09:10:14;;;;;;;;;;;;;;;23.57;74.08;95823.75;5071674;28;20469;-74
2023/06/11 09:12:42;;;;;;;;;;;;;;;23.82;72.78;95822.59;5061508;28;19939;-73
2023/06/11 09:15:09;;;;;;;;;;;;;;;24.23;70.59;95818.78;5077969;28;19931;-74
2023/06/11 09:17:36;;;;;;;;;;;;;;;24.13;72.72;95814.56;5073510;28;19928;-74
2023/06/11 09:20:05;;;;;;;;;;;;;;;24.24;72.71;95813.31;5070998;28;19924;-77
2023/06/11 09:22:31;;;;;;;;;;;;;;;23.86;70.16;95809.84;5078249;28;19974;-74
2023/06/11 09:24:57;;;;;;;;;;;;;;;23.94;72.04;95819.53;5067564;28;19928;-75
2023/06/11 09:27:24;;;;;;;;;;;;;;;24.18;78.66;95818.50;5070774;28;19924;-75
2023/06/11 09:29:51;;;;;;;;;;;;;;;24.15;74.44;95817.03;5078371;28;19932;-74
2023/06/11 09:32:18;;;;;;;;;;;;;;;24.32;71.32;95823.00;5074986;28;19932;-75
2023/06/11 09:34:44;;;;;;;;;;;;;;;24.22;66.74;95814.50;5075371;28;19996;-75
2023/06/11 09:37:11;;;;;;;;;;;;;;;24.48;64.11;95817.59;5062077;28;19925;-75
2023/06/11 09:39:37;;;;;;;;;;;;;;;24.78;64.29;95818.41;5072767;28;20403;-73
2023/06/11 09:42:04;;;;;;;;;;;;;;;24.44;62.68;95821.59;5072532;28;19986;-74
2023/06/11 09:44:32;;;;;;;;;;;;;;;24.56;60.70;95820.13;5064694;28;19928;-75
2023/06/11 09:47:00;;;;;;;;;;;;;;;24.68;62.61;95825.81;5074406;28;19924;-75
2023/06/11 09:49:27;;;;;;;;;;;;;;;24.67;58.01;95826.81;5081336;28;20341;-75
2023/06/11 09:51:55;;;;;;;;;;;;;;;24.63;59.23;95829.00;5077488;28;19931;-74
2023/06/11 09:54:21;;;;;;;;;;;;;;;24.51;59.69;95834.91;5084568;28;19931;-75
2023/06/11 09:56:48;;;;;;;;;;;;;;;24.89;62.13;95829.56;5074580;28;19924;-73
2023/06/11 09:59:17;;;;;;;;;;;;;;;24.99;54.38;95827.44;5078067;28;19925;-75
2023/06/11 10:01:47;;;;;;;;;;;;;;;24.79;50.67;95822.69;5070754;28;19928;-75
2023/06/11 10:04:17;;;;;;;;;;;;;;;24.63;57.28;95820.25;5068021;28;21299;-75
2023/06/11 10:06:44;;;;;;;;;;;;;;;24.29;53.52;95824.19;5081028;28;19981;-73
2023/06/11 10:09:12;;;;;;;;;;;;;;;24.63;58.72;95817.59;5073851;28;19928;-73
2023/06/11 10:11:40;;;;;;;;;;;;;;;24.90;55.40;95817.94;5082301;28;19927;-75
2023/06/11 10:14:12;;;;;;;;;;;;;;;25.11;60.49;95826.00;5072514;28;19930;-75
2023/06/11 10:16:38;;;;;;;;;;;;;;;25.22;53.18;95822.88;5079543;28;20019;-75
2023/06/11 10:19:06;;;;;;;;;;;;;;;25.46;51.77;95826.19;5074365;28;19990;-73
2023/06/11 10:21:40;;;;;;;;;;;;;;;25.22;54.27;95820.22;5081706;28;20324;-75
2023/06/11 10:24:07;;;;;;;;;;;;;;;25.65;52.16;95814.13;5083149;28;20334;-72
2023/06/11 10:26:34;;;;;;;;;;;;;;;25.75;53.20;95817.31;5073980;28;19933;-75
2023/06/11 10:29:01;;;;;;;;;;;;;;;25.43;49.10;95818.59;5080661;28;20430;-73
2023/06/11 10:31:28;;;;;;;;;;;;;;;25.16;50.28;95820.94;5073449;28;20382;-74
2023/06/11 10:34:00;;;;;;;;;;;;;;;25.20;46.96;95822.22;5079569;28;19924;-75
2023/06/11 10:36:27;;;;;;;;;;;;;;;24.83;51.77;95823.16;5066400;28;20130;-75
2023/06/11 10:39:05;;;;;;;;;;;;;;;25.42;44.85;95825.75;5070602;28;20378;-75
2023/06/11 10:41:31;;;;;;;;;;;;;;;25.51;47.44;95816.69;5066880;28;20019;-76
2023/06/11 10:43:58;;;;;;;;;;;;;;;25.63;46.77;95819.66;5078395;28;19928;-73
2023/06/11 10:46:24;;;;;;;;;;;;;;;25.14;43.96;95825.63;5071394;28;20335;-76
2023/06/11 10:48:51;;;;;;;;;;;;;;;25.30;49.20;95822.75;5078028;28;19925;-76
2023/06/11 10:51:18;;;;;;;;;;;;;;;25.50;42.06;95819.50;5076427;28;19936;-75
2023/06/11 10:53:44;;;;;;;;;;;;;;;25.64;46.34;95826.59;5080952;28;19931;-76
2023/06/11 10:56:13;;;;;;;;;;;;;;;25.82;47.03;95826.19;5073894;28;20277;-76
2023/06/11 10:58:40;;;;;;;;;;;;;;;25.71;47.37;95826.66;5076588;28;19993;-76
2023/06/11 11:01:08;;;;;;;;;;;;;;;25.40;46.61;95818.97;5079515;28;19964;-75
2023/06/11 11:03:34;;;;;;;;;;;;;;;25.53;43.31;95811.16;5066514;28;19928;-76
2023/06/11 11:06:01;;;;;;;;;;;;;;;25.48;41.22;95808.28;5075914;28;19925;-76
2023/06/11 11:08:29;;;;;;;;;;;;;;;25.99;45.74;95801.03;5078047;28;19931;-76
2023/06/11 11:10:56;;;;;;;;;;;;;;;25.93;40.49;95812.41;5068580;28;19974;-76
2023/06/11 11:13:24;;;;;;;;;;;;;;;26.03;44.94;95814.72;5072822;28;20540;-76
2023/06/11 11:15:51;;;;;;;;;;;;;;;26.39;45.67;95813.78;5079383;28;19936;-73
2023/06/11 11:18:17;;;;;;;;;;;;;;;25.95;44.14;95814.84;5072701;28;19924;-76
2023/06/11 11:20:44;;;;;;;;;;;;;;;25.97;41.77;95815.50;5070549;28;20402;-76
2023/06/11 11:23:10;;;;;;;;;;;;;;;26.05;40.33;95794.13;5073504;28;19932;-74
2023/06/11 11:25:38;;;;;;;;;;;;;;;26.25;41.81;95807.53;5059969;28;19924;-76
2023/06/11 11:28:05;;;;;;;;;;;;;;;26.48;38.84;95800.19;5063198;28;19925;-75
2023/06/11 11:30:33;;;;;;;;;;;;;;;26.34;38.24;95801.09;5073317;28;19931;-76
2023/06/11 11:32:59;;;;;;;;;;;;;;;26.53;36.81;95804.94;5076503;28;19931;-76
2023/06/11 11:35:28;;;;;;;;;;;;;;;26.69;37.57;95801.94;5072294;28;19931;-76
2023/06/11 11:37:54;;;;;;;;;;;;;;;26.77;36.90;95801.81;5061603;28;20413;-76
2023/06/11 11:40:21;;;;;;;;;;;;;;;27.00;39.60;95788.22;5071459;28;19935;-74
2023/06/11 11:42:51;;;;;;;;;;;;;;;26.96;41.97;95794.94;5076215;28;19924;-76
2023/06/11 11:45:17;;;;;;;;;;;;;;;26.88;36.77;95796.94;5071870;28;20445;-75
2023/06/11 11:47:46;;;;;;;;;;;;;;;26.37;38.89;95799.91;5060379;28;20460;-76
2023/06/11 11:50:21;;;;;;;;;;;;;;;26.59;39.80;95792.69;5065591;28;19925;-76
2023/06/11 11:53:02;;;;;;;;;;;;;;;26.40;40.74;95794.16;5066932;28;19928;-76
2023/06/11 11:55:28;;;;;;;;;;;;;;;26.14;40.14;95785.03;5074742;28;19924;-76
2023/06/11 11:58:01;;;;;;;;;;;;;;;26.51;43.82;95783.03;5070932;28;19936;-76
2023/06/11 12:00:28;;;;;;;;;;;;;;;26.65;47.84;95782.09;5080299;28;19966;-75
2023/06/11 12:02:57;;;;;;;;;;;;;;;26.55;47.51;95779.00;5058577;28;20007;-76
2023/06/11 12:05:27;;;;;;;;;;;;;;;26.38;41.03;95781.09;5066788;28;20011;-74
2023/06/11 12:07:54;;;;;;;;;;;;;;;25.82;40.51;95778.44;5060815;28;19924;-75
2023/06/11 12:10:21;;;;;;;;;;;;;;;25.87;39.77;95778.66;5071543;28;19951;-75
2023/06/11 12:12:47;;;;;;;;;;;;;;;26.01;42.86;95777.78;5072676;28;20264;-75
2023/06/11 12:15:14;;;;;;;;;;;;;;;26.13;36.28;95767.44;5067981;28;20397;-76
2023/06/11 12:17:40;;;;;;;;;;;;;;;26.11;41.32;95766.00;5076352;28;19928;-73
2023/06/11 12:20:08;;;;;;;;;;;;;;;25.86;37.04;95763.78;5073883;28;20379;-75
2023/06/11 12:22:35;;;;;;;;;;;;;;;25.87;41.76;95764.59;5063265;28;20389;-75
2023/06/11 12:25:01;;;;;;;;;;;;;;;25.76;42.68;95765.88;5066399;28;19929;-75
2023/06/11 12:27:27;;;;;;;;;;;;;;;25.72;39.15;95756.69;5070866;28;19928;-75
2023/06/11 12:29:54;;;;;;;;;;;;;;;25.85;40.64;95756.84;5067021;28;19925;-75
2023/06/11 12:32:21;;;;;;;;;;;;;;;25.87;40.66;95751.31;5080998;28;20382;-75
2023/06/11 12:34:47;;;;;;;;;;;;;;;25.92;39.20;95754.22;5064337;28;19925;-75
2023/06/11 12:37:16;;;;;;;;;;;;;;;25.99;38.66;95755.94;5061966;28;19932;-75
2023/06/11 12:39:43;;;;;;;;;;;;;;;25.94;38.32;95760.97;5071159;28;19931;-72